createdAt,value
2023-02-27T00:00:36.290Z,7.15
2023-02-27T00:03:08.250Z,5.57
2023-02-27T00:05:41.144Z,6.10
2023-02-27T00:08:14.589Z,5.93
2023-02-27T00:10:46.478Z,5.82
2023-02-27T00:13:18.421Z,7.35
2023-02-27T00:15:51.170Z,8.00
2023-02-27T00:18:23.616Z,7.65
2023-02-27T00:20:55.564Z,7.43
2023-02-27T00:23:29.000Z,5.25
2023-02-27T00:26:01.131Z,6.65
2023-02-27T00:28:33.068Z,6.70
2023-02-27T00:31:05.430Z,6.47
2023-02-27T00:33:37.400Z,9.38
2023-02-27T00:36:09.343Z,6.53
2023-02-27T00:38:42.698Z,7.80
2023-02-27T00:41:14.942Z,6.63
2023-02-27T00:43:46.954Z,8.25
2023-02-27T00:46:19.812Z,5.97
2023-02-27T00:48:52.044Z,12.80
2023-02-27T00:51:24.092Z,7.07
2023-02-27T00:53:57.527Z,5.40
2023-02-27T00:56:29.745Z,7.55
2023-02-27T00:59:01.789Z,8.98
2023-02-27T01:01:33.726Z,7.78
2023-02-27T01:04:05.741Z,6.85
2023-02-27T01:06:37.731Z,6.35
2023-02-27T01:09:11.049Z,5.55
2023-02-27T01:11:42.977Z,8.18
2023-02-27T01:14:15.090Z,8.75
2023-02-27T01:16:50.076Z,16.58
2023-02-27T01:19:22.040Z,5.97
2023-02-27T01:21:53.983Z,8.07
2023-02-27T01:24:27.574Z,6.22
2023-02-27T01:26:59.782Z,5.78
2023-02-27T01:29:31.799Z,4.97
2023-02-27T01:32:04.001Z,7.63
2023-02-27T01:34:36.518Z,6.47
2023-02-27T01:37:08.584Z,8.57
2023-02-27T01:39:41.977Z,5.07
2023-02-27T01:42:20.439Z,7.63
2023-02-27T01:45:30.476Z,6.43
2023-02-27T01:48:09.258Z,5.03
2023-02-27T01:50:48.376Z,6.55
2023-02-27T01:53:21.996Z,6.85
2023-02-27T01:55:58.462Z,8.63
2023-02-27T01:58:30.536Z,6.97
2023-02-27T02:01:02.592Z,5.32
2023-02-27T02:03:39.249Z,5.50
2023-02-27T02:06:12.528Z,5.38
2023-02-27T02:08:47.772Z,5.57
2023-02-27T02:11:22.647Z,6.72
2023-02-27T02:14:02.875Z,10.70
2023-02-27T02:16:49.270Z,9.00
2023-02-27T02:20:00.454Z,6.22
2023-02-27T02:23:10.254Z,7.15
2023-02-27T02:26:07.866Z,5.65
2023-02-27T02:29:10.201Z,7.53
2023-02-27T02:32:27.137Z,8.63
2023-02-27T02:35:40.344Z,7.13
2023-02-27T02:38:48.964Z,6.93
2023-02-27T02:41:33.260Z,7.90
2023-02-27T02:44:18.161Z,11.30
2023-02-27T02:47:01.944Z,5.75
2023-02-27T02:49:45.405Z,9.45
2023-02-27T02:52:26.817Z,7.25
2023-02-27T02:55:06.156Z,6.10
2023-02-27T02:57:42.321Z,6.57
2023-02-27T03:00:18.479Z,7.40
2023-02-27T03:02:56.964Z,7.32
2023-02-27T03:05:33.155Z,8.75
2023-02-27T03:08:09.583Z,8.88
2023-02-27T03:10:46.566Z,6.53
2023-02-27T03:13:24.906Z,7.30
2023-02-27T03:16:02.775Z,5.97
2023-02-27T03:18:41.349Z,6.28
2023-02-27T03:21:18.675Z,9.00
2023-02-27T03:23:56.236Z,9.32
2023-02-27T03:26:35.230Z,9.23
2023-02-27T03:29:10.478Z,8.20
2023-02-27T03:31:47.054Z,7.55
2023-02-27T03:34:23.746Z,9.80
2023-02-27T03:37:03.227Z,8.35
2023-02-27T03:39:45.223Z,6.18
2023-02-27T03:42:26.283Z,9.05
2023-02-27T03:45:18.823Z,10.60
2023-02-27T03:47:51.764Z,7.70
2023-02-27T03:50:24.117Z,11.27
2023-02-27T03:52:56.592Z,10.82
2023-02-27T03:55:35.845Z,6.57
2023-02-27T03:58:09.637Z,7.47
2023-02-27T04:00:41.893Z,7.63
2023-02-27T04:03:14.461Z,9.15
2023-02-27T04:05:46.907Z,7.82
2023-02-27T04:08:52.034Z,6.60
2023-02-27T04:11:49.718Z,8.32
2023-02-27T04:14:39.572Z,10.50
2023-02-27T04:17:21.043Z,8.68
2023-02-27T04:20:13.593Z,11.73
2023-02-27T04:22:50.345Z,9.70
2023-02-27T04:25:31.705Z,8.90
2023-02-27T04:28:11.925Z,6.95
2023-02-27T04:30:57.929Z,8.13
2023-02-27T04:33:41.566Z,7.70
2023-02-27T04:36:19.997Z,9.45
2023-02-27T04:38:59.936Z,9.73
2023-02-27T04:41:37.601Z,10.13
2023-02-27T04:44:12.893Z,7.78
2023-02-27T04:46:48.694Z,8.32
2023-02-27T04:49:24.728Z,8.63
2023-02-27T04:52:02.258Z,7.25
2023-02-27T04:54:39.912Z,7.63
2023-02-27T04:57:16.241Z,9.52
2023-02-27T04:59:53.217Z,9.30
2023-02-27T05:02:30.809Z,6.88
2023-02-27T05:05:08.719Z,7.75
2023-02-27T05:07:45.065Z,8.98
2023-02-27T05:10:26.090Z,7.95
2023-02-27T05:13:02.660Z,7.22
2023-02-27T05:15:39.170Z,6.80
2023-02-27T05:18:15.895Z,11.50
2023-02-27T05:20:56.563Z,9.10
2023-02-27T05:23:37.659Z,7.57
2023-02-27T05:26:17.433Z,8.13
2023-02-27T05:28:58.434Z,9.00
2023-02-27T05:31:37.245Z,9.95
2023-02-27T05:34:17.867Z,8.50
2023-02-27T05:36:56.172Z,7.40
2023-02-27T05:39:30.433Z,7.25
2023-02-27T05:42:05.061Z,7.50
2023-02-27T05:44:42.653Z,8.10
2023-02-27T05:47:18.661Z,9.95
2023-02-27T05:49:56.506Z,7.50
2023-02-27T05:52:30.999Z,7.97
2023-02-27T05:55:06.735Z,8.30
2023-02-27T05:57:43.132Z,7.50
2023-02-27T06:00:20.538Z,6.95
2023-02-27T06:02:53.292Z,8.02
2023-02-27T06:05:28.030Z,7.63
2023-02-27T06:08:00.796Z,8.63
2023-02-27T06:10:33.157Z,9.70
2023-02-27T06:13:05.194Z,8.70
2023-02-27T06:15:37.206Z,10.05
2023-02-27T06:18:10.380Z,8.68
2023-02-27T06:20:44.413Z,9.30
2023-02-27T06:23:17.216Z,15.63
2023-02-27T06:25:49.458Z,69.60
2023-02-27T06:28:21.413Z,38.88
2023-02-27T06:30:53.932Z,184.65
2023-02-27T06:33:26.370Z,143.63
2023-02-27T06:35:59.666Z,100.78
2023-02-27T06:38:31.797Z,62.05
2023-02-27T06:41:04.464Z,65.60
2023-02-27T06:43:37.255Z,70.22
2023-02-27T06:46:09.314Z,42.80
2023-02-27T06:48:41.258Z,20.92
2023-02-27T06:51:14.646Z,20.02
2023-02-27T06:53:46.665Z,51.20
2023-02-27T06:56:18.593Z,33.80
2023-02-27T06:58:50.552Z,34.53
2023-02-27T07:01:24.944Z,41.17
2023-02-27T07:03:57.095Z,43.97
2023-02-27T07:07:33.241Z,42.30
2023-02-27T07:09:23.336Z,31.13
2023-02-27T07:11:55.361Z,22.58
2023-02-27T07:14:27.336Z,26.88
2023-02-27T07:17:03.205Z,33.15
2023-02-27T07:19:36.947Z,23.05
2023-02-27T07:22:10.215Z,9.38
2023-02-27T07:24:42.230Z,19.58
2023-02-27T07:27:14.248Z,20.90
2023-02-27T07:29:46.525Z,15.35
2023-02-27T07:32:18.476Z,14.88
2023-02-27T07:34:50.493Z,11.40
2023-02-27T07:37:23.915Z,9.70
2023-02-27T07:39:56.405Z,9.60
2023-02-27T07:42:28.311Z,7.53
2023-02-27T07:45:00.432Z,6.85
2023-02-27T07:47:32.430Z,8.25
2023-02-27T07:50:04.906Z,6.00
2023-02-27T07:52:38.500Z,8.15
2023-02-27T07:55:12.161Z,10.38
2023-02-27T07:57:44.832Z,32.28
2023-02-27T08:00:18.114Z,9.57
2023-02-27T08:02:50.139Z,17.65
2023-02-27T08:05:22.148Z,9.07
2023-02-27T08:07:55.747Z,12.88
2023-02-27T08:10:28.036Z,12.73
2023-02-27T08:12:59.986Z,7.32
2023-02-27T08:15:32.855Z,7.53
2023-02-27T08:18:04.866Z,8.10
2023-02-27T08:20:38.274Z,6.40
2023-02-27T08:23:12.113Z,5.70
2023-02-27T08:25:44.174Z,9.77
2023-02-27T08:28:16.937Z,10.63
2023-02-27T08:30:49.088Z,8.20
2023-02-27T08:33:21.075Z,7.45
2023-02-27T08:35:54.579Z,7.60
2023-02-27T08:38:28.230Z,9.15
2023-02-27T08:41:00.193Z,6.60
2023-02-27T08:43:32.266Z,7.32
2023-02-27T08:46:04.487Z,16.27
2023-02-27T08:48:36.497Z,8.05
2023-02-27T08:51:08.494Z,7.32
2023-02-27T08:53:41.840Z,7.63
2023-02-27T08:56:13.818Z,8.55
2023-02-27T08:58:45.742Z,7.70
2023-02-27T09:01:17.780Z,8.25
2023-02-27T09:03:49.734Z,8.60
2023-02-27T09:06:21.689Z,9.98
2023-02-27T09:08:55.080Z,10.38
2023-02-27T09:11:28.517Z,11.13
2023-02-27T09:14:01.029Z,12.15
2023-02-27T09:16:33.372Z,17.00
2023-02-27T09:19:05.410Z,10.15
2023-02-27T09:21:37.534Z,8.50
2023-02-27T09:24:19.872Z,8.52
2023-02-27T09:26:52.872Z,5.50
2023-02-27T09:29:25.814Z,6.15
2023-02-27T09:31:57.893Z,6.93
2023-02-27T09:34:29.954Z,6.95
2023-02-27T09:37:02.243Z,7.15
2023-02-27T09:39:36.309Z,9.60
2023-02-27T09:42:15.581Z,9.07
2023-02-27T09:44:49.548Z,6.15
2023-02-27T09:47:27.675Z,6.72
2023-02-27T09:50:02.379Z,5.68
2023-02-27T09:52:37.549Z,6.20
2023-02-27T09:55:20.578Z,4.55
2023-02-27T09:57:58.835Z,4.57
2023-02-27T10:00:45.810Z,8.02
2023-02-27T10:03:39.916Z,6.03
2023-02-27T10:06:23.243Z,7.78
2023-02-27T10:09:06.615Z,8.10
2023-02-27T10:11:50.079Z,6.47
2023-02-27T10:14:34.193Z,5.50
2023-02-27T10:17:11.988Z,6.72
2023-02-27T10:19:47.063Z,5.55
2023-02-27T10:22:23.323Z,11.07
2023-02-27T10:25:00.856Z,25.90
2023-02-27T10:27:34.631Z,4.10
2023-02-27T10:30:28.306Z,4.50
2023-02-27T10:33:08.158Z,5.25
2023-02-27T10:35:43.146Z,6.72
2023-02-27T10:38:19.672Z,3.97
2023-02-27T10:40:51.716Z,8.10
2023-02-27T10:43:25.615Z,6.80
2023-02-27T10:46:01.587Z,5.28
2023-02-27T10:48:33.826Z,9.13
2023-02-27T10:51:24.985Z,15.02
2023-02-27T10:54:15.714Z,9.63
2023-02-27T10:56:50.595Z,6.05
2023-02-27T10:59:27.249Z,6.22
2023-02-27T11:02:01.433Z,4.70
2023-02-27T11:04:35.369Z,5.20
2023-02-27T11:07:10.125Z,3.90
2023-02-27T11:09:43.314Z,12.18
2023-02-27T11:12:22.639Z,5.05
2023-02-27T11:14:58.034Z,8.10
2023-02-27T11:17:32.803Z,3.78
2023-02-27T11:20:06.541Z,4.70
2023-02-27T11:22:38.653Z,6.22
2023-02-27T11:25:18.996Z,7.15
2023-02-27T11:30:29.024Z,3.90
2023-02-27T11:33:01.667Z,3.65
2023-02-27T11:35:36.987Z,2.63
2023-02-27T11:38:19.298Z,17.98
2023-02-27T11:40:56.257Z,23.05
2023-02-27T11:43:31.385Z,4.72
2023-02-27T11:46:39.651Z,3.70
2023-02-27T11:49:13.707Z,6.25
2023-02-27T11:51:53.536Z,4.65
2023-02-27T11:54:36.218Z,6.00
2023-02-27T11:57:18.341Z,2.97
2023-02-27T11:59:56.106Z,5.53
2023-02-27T12:02:44.644Z,3.47
2023-02-27T12:05:19.355Z,7.05
2023-02-27T12:07:56.900Z,2.53
2023-02-27T12:10:32.082Z,3.75
2023-02-27T12:13:06.677Z,2.90
2023-02-27T12:15:47.496Z,5.15
2023-02-27T12:18:26.861Z,3.22
2023-02-27T12:21:03.877Z,4.77
2023-02-27T12:23:41.612Z,2.80
2023-02-27T12:26:20.259Z,3.03
2023-02-27T12:28:58.180Z,2.40
2023-02-27T12:31:47.437Z,1.70
2023-02-27T12:34:29.532Z,3.40
2023-02-27T12:37:05.588Z,4.60
2023-02-27T12:39:39.259Z,2.45
2023-02-27T12:42:34.200Z,5.60
2023-02-27T12:45:32.879Z,4.68
2023-02-27T12:48:19.519Z,2.72
2023-02-27T12:51:04.509Z,2.03
2023-02-27T12:53:57.543Z,3.28
2023-02-27T12:56:41.558Z,6.70
2023-02-27T12:59:27.227Z,5.57
2023-02-27T13:02:17.368Z,2.85
2023-02-27T13:05:03.950Z,6.57
2023-02-27T13:07:45.116Z,11.43
2023-02-27T13:10:22.895Z,3.70
2023-02-27T13:13:00.199Z,4.32
2023-02-27T13:15:40.908Z,3.50
2023-02-27T13:18:31.627Z,3.17
2023-02-27T13:21:11.207Z,2.72
2023-02-27T13:24:02.753Z,4.68
2023-02-27T13:26:39.992Z,3.20
2023-02-27T13:29:15.548Z,4.47
2023-02-27T13:31:55.780Z,7.15
2023-02-27T13:37:04.697Z,6.70
2023-02-27T13:39:40.598Z,5.97
2023-02-27T13:42:49.544Z,7.60
2023-02-27T13:45:51.347Z,11.75
2023-02-27T13:48:46.397Z,4.50
2023-02-27T13:51:56.561Z,23.20
2023-02-27T13:54:31.755Z,7.70
2023-02-27T13:57:18.941Z,3.28
2023-02-27T13:59:59.384Z,2.45
2023-02-27T14:02:56.465Z,7.15
2023-02-27T14:05:35.076Z,5.07
2023-02-27T14:08:14.218Z,4.50
2023-02-27T14:10:56.940Z,6.18
2023-02-27T14:14:16.599Z,3.45
2023-02-27T14:16:57.753Z,4.65
2023-02-27T14:19:56.841Z,5.95
2023-02-27T14:23:15.402Z,7.53
2023-02-27T14:25:52.261Z,8.77
2023-02-27T14:28:28.349Z,12.48
2023-02-27T14:31:03.243Z,25.55
2023-02-27T14:33:42.196Z,23.35
2023-02-27T14:36:18.941Z,20.10
2023-02-27T14:38:55.197Z,30.73
2023-02-27T14:41:41.460Z,16.20
2023-02-27T14:44:19.447Z,10.77
2023-02-27T14:46:53.692Z,7.82
2023-02-27T14:49:30.570Z,39.03
2023-02-27T14:52:14.859Z,9.32
2023-02-27T14:54:47.330Z,11.13
2023-02-27T14:57:21.273Z,6.03
2023-02-27T14:59:54.293Z,5.95
2023-02-27T15:02:30.572Z,24.17
2023-02-27T15:05:20.864Z,12.70
2023-02-27T15:10:31.126Z,92.38
2023-02-27T15:13:03.624Z,80.05
2023-02-27T15:15:35.630Z,84.20
2023-02-27T15:18:13.731Z,87.50
2023-02-27T15:20:47.053Z,82.07
2023-02-27T15:23:26.088Z,150.20
2023-02-27T15:25:59.546Z,115.57
2023-02-27T15:28:37.570Z,32.83
2023-02-27T15:31:17.792Z,21.95
2023-02-27T15:36:26.211Z,9.82
2023-02-27T15:39:08.027Z,8.00
2023-02-27T15:41:40.230Z,9.68
2023-02-27T15:44:14.342Z,11.23
2023-02-27T15:46:47.651Z,36.85
2023-02-27T15:49:21.980Z,42.55
2023-02-27T15:52:05.597Z,49.17
2023-02-27T15:54:46.813Z,27.45
2023-02-27T15:57:21.030Z,37.15
2023-02-27T15:59:55.718Z,32.03
2023-02-27T16:02:31.310Z,30.17
2023-02-27T16:05:03.371Z,27.02
2023-02-27T16:07:42.131Z,23.00
2023-02-27T16:10:20.402Z,24.88
2023-02-27T16:12:52.443Z,21.50
2023-02-27T16:15:31.003Z,25.20
2023-02-27T16:18:22.413Z,21.92
2023-02-27T16:23:32.540Z,14.52
2023-02-27T16:26:13.284Z,24.92
2023-02-27T16:28:51.523Z,19.77
2023-02-27T16:31:27.344Z,24.48
2023-02-27T16:34:01.285Z,27.15
2023-02-27T16:36:33.447Z,25.90
2023-02-27T16:39:08.825Z,30.70
2023-02-27T16:41:40.773Z,28.80
2023-02-27T16:44:12.787Z,27.60
2023-02-27T16:46:45.034Z,32.10
2023-02-27T16:49:22.370Z,35.05
2023-02-27T16:51:54.901Z,34.45
2023-02-27T16:54:28.248Z,34.30
2023-02-27T16:57:00.217Z,31.77
2023-02-27T16:59:34.527Z,36.03
2023-02-27T17:02:10.478Z,36.22
2023-02-27T17:04:44.465Z,32.13
2023-02-27T17:07:18.776Z,34.72
2023-02-27T17:09:52.265Z,40.10
2023-02-27T17:12:24.225Z,38.22
2023-02-27T17:14:56.430Z,39.47
2023-02-27T17:17:28.393Z,39.13
2023-02-27T17:20:00.344Z,48.13
2023-02-27T17:22:35.119Z,45.00
2023-02-27T17:25:10.102Z,132.93
2023-02-27T17:27:42.414Z,108.20
2023-02-27T17:30:15.097Z,112.80
2023-02-27T17:32:47.172Z,112.60
2023-02-27T17:35:19.185Z,124.63
2023-02-27T17:37:51.420Z,135.60
2023-02-27T17:40:24.938Z,128.50
2023-02-27T17:42:56.954Z,118.95
2023-02-27T17:45:29.033Z,94.50
2023-02-27T17:48:01.053Z,74.07
2023-02-27T17:50:34.502Z,60.42
2023-02-27T17:53:06.642Z,55.00
2023-02-27T17:55:40.612Z,55.83
2023-02-27T17:58:12.617Z,59.28
2023-02-27T18:00:44.555Z,55.47
2023-02-27T18:03:16.805Z,74.45
2023-02-27T18:05:50.288Z,79.50
2023-02-27T18:08:22.227Z,83.70
2023-02-27T18:10:55.715Z,69.53
2023-02-27T18:13:28.563Z,71.93
2023-02-27T18:16:00.607Z,76.25
2023-02-27T18:18:34.846Z,82.15
2023-02-27T18:21:09.824Z,65.38
2023-02-27T18:23:42.661Z,91.03
2023-02-27T18:26:29.558Z,85.82
2023-02-27T18:29:05.945Z,75.47
2023-02-27T18:31:40.183Z,87.43
2023-02-27T18:34:12.568Z,88.00
2023-02-27T18:36:44.593Z,111.30
2023-02-27T18:39:16.588Z,100.75
2023-02-27T18:41:49.898Z,92.68
2023-02-27T18:44:21.892Z,87.43
2023-02-27T18:46:53.882Z,90.88
2023-02-27T18:49:25.883Z,89.35
2023-02-27T18:51:57.792Z,80.47
2023-02-27T18:54:30.115Z,85.78
2023-02-27T18:57:03.640Z,85.00
2023-02-27T18:59:35.805Z,101.97
2023-02-27T19:02:13.667Z,83.38
2023-02-27T19:04:45.785Z,60.08
2023-02-27T19:07:18.144Z,56.92
2023-02-27T19:09:50.139Z,50.20
2023-02-27T19:12:23.430Z,49.30
2023-02-27T19:14:55.455Z,49.50
2023-02-27T19:17:27.730Z,44.80
2023-02-27T19:19:59.766Z,46.55
2023-02-27T19:22:31.722Z,40.65
2023-02-27T19:25:04.104Z,41.28
2023-02-27T19:27:38.066Z,37.10
2023-02-27T19:30:11.397Z,37.92
2023-02-27T19:32:43.332Z,45.45
2023-02-27T19:35:15.459Z,63.10
2023-02-27T19:37:48.865Z,51.38
2023-02-27T19:40:22.398Z,55.53
2023-02-27T19:42:55.786Z,71.85
2023-02-27T19:45:28.142Z,92.20
2023-02-27T19:48:00.321Z,118.75
2023-02-27T19:50:34.449Z,116.80
2023-02-27T19:53:06.413Z,190.88
2023-02-27T19:55:38.545Z,85.32
2023-02-27T19:58:11.839Z,110.85
2023-02-27T20:00:43.824Z,130.50
2023-02-27T20:03:15.746Z,76.93
2023-02-27T20:05:47.740Z,40.63
2023-02-27T20:08:19.654Z,41.28
2023-02-27T20:10:55.863Z,39.60
2023-02-27T20:13:29.670Z,42.30
2023-02-27T20:16:03.578Z,34.72
2023-02-27T20:18:36.477Z,25.85
2023-02-27T20:21:10.668Z,21.45
2023-02-27T20:23:45.626Z,22.50
2023-02-27T20:26:19.911Z,22.35
2023-02-27T20:28:55.873Z,29.90
2023-02-27T20:31:30.620Z,38.20
2023-02-27T20:34:06.046Z,29.50
2023-02-27T20:36:39.660Z,44.95
2023-02-27T20:39:12.054Z,25.83
2023-02-27T20:41:45.062Z,26.63
2023-02-27T20:44:18.444Z,29.75
2023-02-27T20:46:50.424Z,23.30
2023-02-27T20:49:23.248Z,20.80
2023-02-27T20:51:55.346Z,28.85
2023-02-27T20:54:27.262Z,26.88
2023-02-27T20:56:59.272Z,23.27
2023-02-27T20:59:32.822Z,21.38
2023-02-27T21:02:06.897Z,21.33
2023-02-27T21:04:42.599Z,26.20
2023-02-27T21:07:17.116Z,24.40
2023-02-27T21:09:49.986Z,26.67
2023-02-27T21:12:21.991Z,30.77
2023-02-27T21:14:56.032Z,49.25
2023-02-27T21:17:28.033Z,42.97
2023-02-27T21:19:59.994Z,37.42
2023-02-27T21:22:32.183Z,42.55
2023-02-27T21:25:04.467Z,38.50
2023-02-27T21:27:36.423Z,40.78
2023-02-27T21:30:11.686Z,41.22
2023-02-27T21:32:43.930Z,41.22
2023-02-27T21:35:16.311Z,40.33
2023-02-27T21:37:48.231Z,44.47
2023-02-27T21:40:20.355Z,57.35
2023-02-27T21:42:53.029Z,45.03
2023-02-27T21:45:26.409Z,46.30
2023-02-27T21:47:58.326Z,34.78
2023-02-27T21:50:31.741Z,36.28
2023-02-27T21:53:03.682Z,37.63
2023-02-27T21:55:35.783Z,43.83
2023-02-27T21:58:10.310Z,81.57
2023-02-27T22:00:43.623Z,48.95
2023-02-27T22:03:15.618Z,41.13
2023-02-27T22:05:47.570Z,53.13
2023-02-27T22:08:19.770Z,76.13
2023-02-27T22:10:56.068Z,185.68
2023-02-27T22:13:28.021Z,123.03
2023-02-27T22:16:06.210Z,51.78
2023-02-27T22:18:39.637Z,265.90
2023-02-27T22:21:14.028Z,110.22
2023-02-27T22:23:46.661Z,56.35
2023-02-27T22:26:20.844Z,70.13
2023-02-27T22:28:52.914Z,49.22
2023-02-27T22:31:29.883Z,109.47
2023-02-27T22:34:05.267Z,138.68
2023-02-27T22:36:37.336Z,321.73
2023-02-27T22:39:10.804Z,425.33
2023-02-27T22:41:42.994Z,136.95
2023-02-27T22:44:16.765Z,142.07
2023-02-27T22:46:50.291Z,167.05
2023-02-27T22:49:23.719Z,147.00
2023-02-27T22:51:55.630Z,214.65
2023-02-27T22:54:27.670Z,96.95
2023-02-27T22:56:59.629Z,30.23
2023-02-27T22:59:31.585Z,17.02
2023-02-27T23:02:06.252Z,16.45
2023-02-27T23:04:38.538Z,17.83
2023-02-27T23:07:10.455Z,11.77
2023-02-27T23:09:42.625Z,12.27
2023-02-27T23:12:14.555Z,10.75
2023-02-27T23:14:46.472Z,11.10
2023-02-27T23:17:19.746Z,13.52
2023-02-27T23:19:51.682Z,11.80
2023-02-27T23:22:23.603Z,11.00
2023-02-27T23:24:56.360Z,14.63
2023-02-27T23:27:28.250Z,11.77
2023-02-27T23:30:01.583Z,11.90
2023-02-27T23:32:43.488Z,11.27
2023-02-27T23:35:17.331Z,10.00
2023-02-27T23:37:49.871Z,12.10
2023-02-27T23:40:22.971Z,9.73
2023-02-27T23:42:55.001Z,6.85
2023-02-27T23:45:27.034Z,10.02
2023-02-27T23:48:01.789Z,6.72
2023-02-27T23:50:35.904Z,9.02
2023-02-27T23:53:08.084Z,11.80
2023-02-27T23:55:40.845Z,7.35
2023-02-27T23:58:12.856Z,5.88
